Japan Airlines Virtual Airport Information Service

Ishigaki New Airport

ICAO: ROIG Country: Japan
Latitude: 24.3964 Longitude: 124.245
Latest Arrival : JTA73 (RJTT-ROIG) Latest Departure : JTA622 (ROIG-ROAH)


WX CaptureLIVE
Data provided by noaa.gov | Fetched at 07:36:33

METAR : ROIG 060700Z 20012KT 9999 FEW012 SCT028 BKN060 25/22 Q1014

TAF : ROIG 060719Z 0607/0712 24012KT 9999 FEW008 BKN015 BECMG 0608/0610 35010KT TEMPO 0608/0611 3000 +SHRA FEW006 BKN008 BKN015 SCT020CB TEMPO 0611/0618 FEW006 BKN008 BKN015


Runway Data for ROIG
Data provided by openaviationdata.com

Runway ID Mag Var Hdg Length Elevation Surface ILS Freq ILS Id ILS Slope
4 -4 46° 4930 ft 86 ft Asphalt -- -- --
22 -4 226° 4930 ft 86 ft Asphalt -- -- --

Ishigaki New Airport, Japan
Use only for reference purposes



Not for navigational purposes.